Time;durP1;ratioP1;P1;durP2;ratioP2;P2;SDS_P1;SDS_P2;PMS_P1;PMS_P2;Temp;Humidity;BMP_temperature;BMP_pressure;BME280_temperature;BME280_humidity;BME280_pressure;Samples;Min_cycle;Max_cycle;Signal;HPM_P1;HPM_P2
2022/11/02 00:01:24;;;;;;;;;;;;;;;;;;7366944;19;810;-53
2022/11/02 00:03:52;;;;;;;;;;;;;;;;;;7369718;19;1797;-52
2022/11/02 00:06:20;;;;;;;;;;;;;;;;;;7369438;19;1814;-51
2022/11/02 00:08:48;;;;;;;;;;;;;;;;;;7364840;19;1275;-51
2022/11/02 00:11:16;;;;;;;;;;;;;;;;;;7366021;19;783;-49
2022/11/02 00:13:45;;;;;;;;;;;;;;;;;;7364401;19;2064;-49
2022/11/02 00:16:13;;;;;;;;;;;;;;;;;;7369072;19;1829;-49
2022/11/02 00:18:41;;;;;;;;;;;;;;;;;;7364329;19;1289;-53
2022/11/02 00:21:09;;;;;;;;;;;;;;;;;;7365721;19;866;-49
2022/11/02 00:23:37;;;;;;;;;;;;;;;;;;7364202;19;853;-50
2022/11/02 00:26:06;;;;;;;;;;;;;;;;;;7368046;19;1803;-49
2022/11/02 00:28:34;;;;;;;;;;;;;;;;;;7364002;19;1354;-56
2022/11/02 00:31:02;;;;;;;;;;;;;;;;;;7365480;19;837;-54
2022/11/02 00:33:30;;;;;;;;;;;;;;;;;;7363318;19;1841;-55
2022/11/02 00:35:58;;;;;;;;;;;;;;;;;;7368044;19;1578;-55
2022/11/02 00:38:26;;;;;;;;;;;;;;;;;;7367383;19;1772;-54
2022/11/02 00:40:55;;;;;;;;;;;;;;;;;;7365217;19;854;-54
2022/11/02 00:43:23;;;;;;;;;;;;;;;;;;7364034;19;865;-54
2022/11/02 00:45:51;;;;;;;;;;;;;;;;;;7367038;19;1668;-56
2022/11/02 00:48:19;;;;;;;;;;;;;;;;;;7365528;19;2035;-53
2022/11/02 00:50:47;;;;;;;;;;;;;;;;;;7365177;19;879;-54
2022/11/02 00:53:15;;;;;;;;;;;;;;;;;;7364034;19;1866;-52
2022/11/02 00:55:52;;;;;;;;;;;;;;;;;;7366959;19;2030;-50
2022/11/02 00:58:21;;;;;;;;;;;;;;;;;;7361679;19;1318;-54
2022/11/02 01:00:51;;;;;;;;;;;;;;;;;;7365075;19;722;-55
2022/11/02 01:03:19;;;;;;;;;;;;;;;;;;7362780;19;770;-56
2022/11/02 01:05:48;;;;;;;;;;;;;;;;;;7365311;19;2240;-55
2022/11/02 01:08:16;;;;;;;;;;;;;;;;;;7364003;19;1331;-53
2022/11/02 01:10:44;;;;;;;;;;;;;;;;;;7366877;19;780;-54
2022/11/02 01:13:12;;;;;;;;;;;;;;;;;;7369101;19;1856;-48
2022/11/02 01:15:41;;;;;;;;;;;;;;;;;;7372145;19;2018;-54
2022/11/02 01:18:10;;;;;;;;;;;;;;;;;;7369946;19;827;-54
2022/11/02 01:20:38;;;;;;;;;;;;;;;;;;7367095;19;1317;-54
2022/11/02 01:23:06;;;;;;;;;;;;;;;;;;7371864;19;831;-53
2022/11/02 01:25:34;;;;;;;;;;;;;;;;;;7370745;19;2050;-52
2022/11/02 01:28:02;;;;;;;;;;;;;;;;;;7369501;19;839;-56
2022/11/02 01:30:30;;;;;;;;;;;;;;;;;;7367825;19;1306;-49
2022/11/02 01:32:58;;;;;;;;;;;;;;;;;;7369066;19;1854;-50
2022/11/02 01:35:28;;;;;;;;;;;;;;;;;;7369359;19;2046;-53
2022/11/02 01:37:56;;;;;;;;;;;;;;;;;;7367924;19;881;-56
2022/11/02 01:40:24;;;;;;;;;;;;;;;;;;7368361;19;1278;-55
2022/11/02 01:42:52;;;;;;;;;;;;;;;;;;7371481;19;835;-56
2022/11/02 01:45:21;;;;;;;;;;;;;;;;;;7371743;19;1826;-51
2022/11/02 01:47:49;;;;;;;;;;;;;;;;;;7369622;19;1134;-54
2022/11/02 01:50:17;;;;;;;;;;;;;;;;;;7368766;19;1286;-54
2022/11/02 01:52:45;;;;;;;;;;;;;;;;;;7369757;19;1867;-56
2022/11/02 01:55:15;;;;;;;;;;;;;;;;;;7369037;19;2078;-56
2022/11/02 01:57:43;;;;;;;;;;;;;;;;;;7372571;19;2046;-50
2022/11/02 02:00:11;;;;;;;;;;;;;;;;;;7372818;19;1314;-56
2022/11/02 02:02:42;;;;;;;;;;;;;;;;;;7387245;19;1047;-56
2022/11/02 02:05:10;;;;;;;;;;;;;;;;;;7387746;19;1705;-54
2022/11/02 02:07:38;;;;;;;;;;;;;;;;;;7375032;19;1588;-56
2022/11/02 02:10:07;;;;;;;;;;;;;;;;;;7366637;19;1353;-49
2022/11/02 02:12:35;;;;;;;;;;;;;;;;;;7367886;19;1863;-54
2022/11/02 02:15:03;;;;;;;;;;;;;;;;;;7368906;19;1832;-54
2022/11/02 02:17:32;;;;;;;;;;;;;;;;;;7367518;19;823;-56
2022/11/02 02:20:00;;;;;;;;;;;;;;;;;;7365776;19;1342;-55
2022/11/02 02:22:28;;;;;;;;;;;;;;;;;;7368435;19;1854;-50
2022/11/02 02:24:56;;;;;;;;;;;;;;;;;;7373527;19;1837;-52
2022/11/02 02:27:24;;;;;;;;;;;;;;;;;;7372469;19;1910;-55
2022/11/02 02:29:52;;;;;;;;;;;;;;;;;;7368656;19;1627;-49
2022/11/02 02:32:21;;;;;;;;;;;;;;;;;;7369312;19;842;-55
2022/11/02 02:34:49;;;;;;;;;;;;;;;;;;7365000;19;1850;-54
2022/11/02 02:37:17;;;;;;;;;;;;;;;;;;7373088;19;2098;-55
2022/11/02 02:39:45;;;;;;;;;;;;;;;;;;7366738;19;1353;-49
2022/11/02 02:42:14;;;;;;;;;;;;;;;;;;7367262;19;885;-56
2022/11/02 02:44:42;;;;;;;;;;;;;;;;;;7368646;19;862;-56
2022/11/02 02:47:10;;;;;;;;;;;;;;;;;;7372223;19;1812;-53
2022/11/02 02:49:38;;;;;;;;;;;;;;;;;;7364539;19;1343;-55
2022/11/02 02:52:06;;;;;;;;;;;;;;;;;;7369065;19;952;-53
2022/11/02 02:54:34;;;;;;;;;;;;;;;;;;7363746;19;1831;-53
2022/11/02 02:57:03;;;;;;;;;;;;;;;;;;7370737;19;1681;-49
2022/11/02 02:59:31;;;;;;;;;;;;;;;;;;7366624;19;1794;-51
2022/11/02 03:02:01;;;;;;;;;;;;;;;;;;7367863;19;786;-50
2022/11/02 03:04:30;;;;;;;;;;;;;;;;;;7369051;19;1728;-48
2022/11/02 03:06:58;;;;;;;;;;;;;;;;;;7369593;19;1687;-55
2022/11/02 03:09:26;;;;;;;;;;;;;;;;;;7370734;19;1818;-53
2022/11/02 03:11:56;;;;;;;;;;;;;;;;;;7366736;19;851;-56
2022/11/02 03:14:24;;;;;;;;;;;;;;;;;;7364191;19;1864;-54
2022/11/02 03:16:52;;;;;;;;;;;;;;;;;;7370729;19;2068;-54
2022/11/02 03:19:20;;;;;;;;;;;;;;;;;;7364963;19;1251;-48
2022/11/02 03:21:48;;;;;;;;;;;;;;;;;;7366348;19;874;-54
2022/11/02 03:24:17;;;;;;;;;;;;;;;;;;7368499;19;799;-55
2022/11/02 03:26:45;;;;;;;;;;;;;;;;;;7370369;19;1537;-54
2022/11/02 03:29:14;;;;;;;;;;;;;;;;;;7365135;19;1310;-56
2022/11/02 03:31:43;;;;;;;;;;;;;;;;;;7367078;19;779;-54
2022/11/02 03:34:11;;;;;;;;;;;;;;;;;;7362074;19;1865;-50
2022/11/02 03:36:40;;;;;;;;;;;;;;;;;;7370089;19;1795;-50
2022/11/02 03:39:08;;;;;;;;;;;;;;;;;;7364041;19;1298;-52
2022/11/02 03:41:39;;;;;;;;;;;;;;;;;;7368301;19;770;-52
2022/11/02 03:44:07;;;;;;;;;;;;;;;;;;7366145;19;810;-49
2022/11/02 03:46:35;;;;;;;;;;;;;;;;;;7370969;19;1858;-55
2022/11/02 03:49:05;;;;;;;;;;;;;;;;;;7366508;19;1290;-53
2022/11/02 03:51:33;;;;;;;;;;;;;;;;;;7369468;19;860;-56
2022/11/02 03:54:02;;;;;;;;;;;;;;;;;;7366046;19;1845;-54
2022/11/02 03:56:32;;;;;;;;;;;;;;;;;;7368037;19;1721;-55
2022/11/02 03:59:00;;;;;;;;;;;;;;;;;;7363208;19;1379;-52
2022/11/02 04:01:29;;;;;;;;;;;;;;;;;;7365329;19;773;-50
2022/11/02 04:03:57;;;;;;;;;;;;;;;;;;7365660;19;791;-55
2022/11/02 04:06:26;;;;;;;;;;;;;;;;;;7366440;19;2200;-49
2022/11/02 04:08:54;;;;;;;;;;;;;;;;;;7362887;19;1379;-54
2022/11/02 04:16:48;;;;;;;;;;;;;;;;;;7368507;19;2054;-51
2022/11/02 04:19:27;;;;;;;;;;;;;;;;;;7366604;19;1775;-54
2022/11/02 04:27:22;;;;;;;;;;;;;;;;;;7364675;19;783;-50
2022/11/02 04:29:52;;;;;;;;;;;;;;;;;;7361548;19;1282;-51
2022/11/02 04:33:31;;;;;;;;;;;;;;;;;;7363392;19;847;-53
2022/11/02 04:35:11;;;;;;;;;;;;;;;;;;7361623;19;1835;-49
2022/11/02 04:40:21;;;;;;;;;;;;;;;;;;7362140;19;1351;-52
2022/11/02 04:42:49;;;;;;;;;;;;;;;;;;7366177;19;886;-53
2022/11/02 04:45:17;;;;;;;;;;;;;;;;;;7366442;19;1931;-56
2022/11/02 04:47:45;;;;;;;;;;;;;;;;;;7369059;19;850;-55
2022/11/02 04:50:14;;;;;;;;;;;;;;;;;;7368571;19;1367;-56
2022/11/02 04:52:42;;;;;;;;;;;;;;;;;;7370294;19;806;-49
2022/11/02 04:55:10;;;;;;;;;;;;;;;;;;7367558;19;1845;-50
2022/11/02 04:57:40;;;;;;;;;;;;;;;;;;7370283;19;1694;-54
2022/11/02 05:00:08;;;;;;;;;;;;;;;;;;7369729;19;1273;-52
2022/11/02 05:02:36;;;;;;;;;;;;;;;;;;7370490;19;858;-53
2022/11/02 05:05:05;;;;;;;;;;;;;;;;;;7369827;19;1810;-49
2022/11/02 05:07:33;;;;;;;;;;;;;;;;;;7368783;19;885;-54
2022/11/02 05:10:01;;;;;;;;;;;;;;;;;;7366966;19;2119;-55
2022/11/02 05:12:29;;;;;;;;;;;;;;;;;;7371351;19;2086;-54
2022/11/02 05:14:57;;;;;;;;;;;;;;;;;;7367898;19;1838;-51
2022/11/02 05:17:26;;;;;;;;;;;;;;;;;;7372108;19;1716;-50
2022/11/02 05:19:54;;;;;;;;;;;;;;;;;;7368236;19;1318;-56
2022/11/02 05:22:23;;;;;;;;;;;;;;;;;;7369782;19;849;-54
2022/11/02 05:24:51;;;;;;;;;;;;;;;;;;7369574;19;865;-52
2022/11/02 05:27:19;;;;;;;;;;;;;;;;;;7372910;19;1781;-50
2022/11/02 05:29:48;;;;;;;;;;;;;;;;;;7365305;19;1271;-54
2022/11/02 05:32:17;;;;;;;;;;;;;;;;;;7368665;19;798;-50
2022/11/02 05:34:45;;;;;;;;;;;;;;;;;;7369043;19;1864;-49
2022/11/02 05:37:13;;;;;;;;;;;;;;;;;;7374119;19;1885;-49
2022/11/02 05:39:42;;;;;;;;;;;;;;;;;;7366588;19;1338;-55
2022/11/02 05:42:10;;;;;;;;;;;;;;;;;;7368211;19;834;-56
2022/11/02 05:44:38;;;;;;;;;;;;;;;;;;7370448;19;800;-54
2022/11/02 05:47:06;;;;;;;;;;;;;;;;;;7372417;19;1807;-53
2022/11/02 05:49:34;;;;;;;;;;;;;;;;;;7367821;19;1258;-51
2022/11/02 05:52:02;;;;;;;;;;;;;;;;;;7372350;19;2148;-53
2022/11/02 05:54:30;;;;;;;;;;;;;;;;;;7369130;19;1839;-53
2022/11/02 05:56:59;;;;;;;;;;;;;;;;;;7370967;19;1580;-53
2022/11/02 05:59:27;;;;;;;;;;;;;;;;;;7368133;19;1282;-55
2022/11/02 06:01:55;;;;;;;;;;;;;;;;;;7369581;19;811;-53
2022/11/02 06:04:23;;;;;;;;;;;;;;;;;;7370236;19;815;-57
2022/11/02 06:06:51;;;;;;;;;;;;;;;;;;7372626;19;2042;-56
2022/11/02 06:09:19;;;;;;;;;;;;;;;;;;7371753;19;1806;-58
2022/11/02 06:11:47;;;;;;;;;;;;;;;;;;7370011;19;854;-56
2022/11/02 06:14:16;;;;;;;;;;;;;;;;;;7368964;19;1853;-52
2022/11/02 06:16:44;;;;;;;;;;;;;;;;;;7372512;19;1744;-53
2022/11/02 06:19:12;;;;;;;;;;;;;;;;;;7367416;19;1274;-53
2022/11/02 06:21:40;;;;;;;;;;;;;;;;;;7369483;19;849;-55
2022/11/02 06:24:08;;;;;;;;;;;;;;;;;;7369802;19;838;-53
2022/11/02 06:26:36;;;;;;;;;;;;;;;;;;7371233;19;1806;-50
2022/11/02 06:29:04;;;;;;;;;;;;;;;;;;7370671;19;1660;-53
2022/11/02 06:31:33;;;;;;;;;;;;;;;;;;7367725;19;838;-49
2022/11/02 06:34:01;;;;;;;;;;;;;;;;;;7368400;19;1834;-52
2022/11/02 06:36:29;;;;;;;;;;;;;;;;;;7371234;19;1579;-55
2022/11/02 06:38:57;;;;;;;;;;;;;;;;;;7367470;19;1333;-52
2022/11/02 06:41:25;;;;;;;;;;;;;;;;;;7369223;19;794;-49
2022/11/02 06:43:53;;;;;;;;;;;;;;;;;;7368876;19;919;-53
2022/11/02 06:46:22;;;;;;;;;;;;;;;;;;7371146;19;1824;-51
2022/11/02 06:48:50;;;;;;;;;;;;;;;;;;7371483;19;1672;-56
2022/11/02 06:51:18;;;;;;;;;;;;;;;;;;7369187;19;787;-53
2022/11/02 06:53:46;;;;;;;;;;;;;;;;;;7369338;19;807;-50
2022/11/02 06:56:14;;;;;;;;;;;;;;;;;;7370869;19;2037;-51
2022/11/02 06:58:42;;;;;;;;;;;;;;;;;;7366889;19;1331;-54
2022/11/02 07:01:12;;;;;;;;;;;;;;;;;;7368602;19;853;-48
2022/11/02 07:03:40;;;;;;;;;;;;;;;;;;7368180;19;864;-51
2022/11/02 07:06:08;;;;;;;;;;;;;;;;;;7370946;19;1813;-55
2022/11/02 07:08:36;;;;;;;;;;;;;;;;;;7370928;19;1815;-56
2022/11/02 07:11:04;;;;;;;;;;;;;;;;;;7369930;19;854;-51
2022/11/02 07:13:32;;;;;;;;;;;;;;;;;;7368609;19;813;-54
2022/11/02 07:16:00;;;;;;;;;;;;;;;;;;7367860;19;1841;-50
2022/11/02 07:18:29;;;;;;;;;;;;;;;;;;7367448;19;1290;-51
2022/11/02 07:20:57;;;;;;;;;;;;;;;;;;7368184;19;815;-49
2022/11/02 07:23:25;;;;;;;;;;;;;;;;;;7370516;19;1841;-50
2022/11/02 07:25:53;;;;;;;;;;;;;;;;;;7368967;19;1865;-52
2022/11/02 07:28:21;;;;;;;;;;;;;;;;;;7369342;19;1890;-55
2022/11/02 07:30:50;;;;;;;;;;;;;;;;;;7367731;19;820;-57
2022/11/02 07:33:18;;;;;;;;;;;;;;;;;;7368659;19;823;-53
2022/11/02 07:35:46;;;;;;;;;;;;;;;;;;7365907;19;1897;-56
2022/11/02 07:38:14;;;;;;;;;;;;;;;;;;7367237;19;1679;-56
2022/11/02 07:40:42;;;;;;;;;;;;;;;;;;7372114;19;2057;-57
2022/11/02 07:43:10;;;;;;;;;;;;;;;;;;7375425;19;1670;-53
2022/11/02 07:45:58;;;;;;;;;;;;;;;;;;7370643;19;728;-53
2022/11/02 07:48:27;;;;;;;;;;;;;;;;;;7369664;19;1275;-56
2022/11/02 07:50:55;;;;;;;;;;;;;;;;;;7370140;19;1826;-53
2022/11/02 07:53:23;;;;;;;;;;;;;;;;;;7369993;19;866;-54
2022/11/02 07:55:51;;;;;;;;;;;;;;;;;;7370292;19;1856;-57
2022/11/02 07:58:19;;;;;;;;;;;;;;;;;;7371874;19;1377;-52
2022/11/02 08:00:47;;;;;;;;;;;;;;;;;;7371161;19;1084;-51
2022/11/02 08:03:16;;;;;;;;;;;;;;;;;;7368521;19;857;-52
2022/11/02 08:05:44;;;;;;;;;;;;;;;;;;7368183;19;1824;-50
2022/11/02 08:08:12;;;;;;;;;;;;;;;;;;7371072;19;1874;-52
2022/11/02 08:10:40;;;;;;;;;;;;;;;;;;7363896;19;1377;-48
2022/11/02 08:13:08;;;;;;;;;;;;;;;;;;7367599;19;869;-51
2022/11/02 08:15:37;;;;;;;;;;;;;;;;;;7365053;19;1854;-50
2022/11/02 08:18:05;;;;;;;;;;;;;;;;;;7370273;19;1797;-56
2022/11/02 08:20:33;;;;;;;;;;;;;;;;;;7375349;19;1786;-53
2022/11/02 08:23:01;;;;;;;;;;;;;;;;;;7381226;19;878;-55
2022/11/02 08:25:29;;;;;;;;;;;;;;;;;;7380470;19;884;-49
2022/11/02 08:27:57;;;;;;;;;;;;;;;;;;7383440;19;1800;-54
2022/11/02 08:30:25;;;;;;;;;;;;;;;;;;7377789;19;1348;-54
2022/11/02 08:32:54;;;;;;;;;;;;;;;;;;7380569;19;866;-52
2022/11/02 08:35:22;;;;;;;;;;;;;;;;;;7378869;19;1841;-51
2022/11/02 08:37:50;;;;;;;;;;;;;;;;;;7382858;19;1564;-52
2022/11/02 08:40:19;;;;;;;;;;;;;;;;;;7376896;19;1286;-53
2022/11/02 08:42:47;;;;;;;;;;;;;;;;;;7379489;19;1010;-50
2022/11/02 08:45:16;;;;;;;;;;;;;;;;;;7379505;19;796;-51
2022/11/02 08:47:44;;;;;;;;;;;;;;;;;;7381143;19;1799;-56
2022/11/02 08:50:12;;;;;;;;;;;;;;;;;;7381364;19;1756;-54
2022/11/02 08:52:40;;;;;;;;;;;;;;;;;;7379567;19;863;-52
2022/11/02 08:55:08;;;;;;;;;;;;;;;;;;7376596;19;1841;-57
2022/11/02 08:57:36;;;;;;;;;;;;;;;;;;7381345;19;1821;-56
2022/11/02 09:00:05;;;;;;;;;;;;;;;;;;7377065;19;1336;-55
2022/11/02 09:02:33;;;;;;;;;;;;;;;;;;7382176;19;1834;-51
2022/11/02 09:05:01;;;;;;;;;;;;;;;;;;7379698;19;762;-53
2022/11/02 09:07:29;;;;;;;;;;;;;;;;;;7381789;19;1820;-54
2022/11/02 09:09:57;;;;;;;;;;;;;;;;;;7376505;19;1302;-52
2022/11/02 09:12:26;;;;;;;;;;;;;;;;;;7378467;19;837;-51
2022/11/02 09:14:54;;;;;;;;;;;;;;;;;;7378144;19;1853;-49
2022/11/02 09:17:22;;;;;;;;;;;;;;;;;;7381226;19;1782;-48
2022/11/02 09:19:50;;;;;;;;;;;;;;;;;;7380001;19;1745;-62
2022/11/02 09:22:18;;;;;;;;;;;;;;;;;;7373491;19;2060;-58
2022/11/02 09:24:46;;;;;;;;;;;;;;;;;;7382278;19;1502;-59
2022/11/02 09:27:14;;;;;;;;;;;;;;;;;;7380541;19;810;-54
2022/11/02 09:29:42;;;;;;;;;;;;;;;;;;7378283;19;2067;-54
2022/11/02 09:32:11;;;;;;;;;;;;;;;;;;7373994;19;771;-56
2022/11/02 09:34:39;;;;;;;;;;;;;;;;;;7369868;19;1838;-57
2022/11/02 09:37:07;;;;;;;;;;;;;;;;;;7370670;19;878;-56
2022/11/02 09:39:35;;;;;;;;;;;;;;;;;;7371850;19;1782;-59
2022/11/02 09:42:03;;;;;;;;;;;;;;;;;;7371865;19;878;-58
2022/11/02 09:44:32;;;;;;;;;;;;;;;;;;7371389;19;831;-56
2022/11/02 09:47:01;;;;;;;;;;;;;;;;;;7371437;19;882;-57
2022/11/02 09:49:29;;;;;;;;;;;;;;;;;;7371286;19;2102;-56
2022/11/02 09:51:57;;;;;;;;;;;;;;;;;;7372291;19;1740;-61
2022/11/02 09:54:26;;;;;;;;;;;;;;;;;;7370887;19;815;-59
2022/11/02 09:56:54;;;;;;;;;;;;;;;;;;7371286;19;1857;-61
2022/11/02 09:59:22;;;;;;;;;;;;;;;;;;7370765;19;1862;-61
2022/11/02 10:01:50;;;;;;;;;;;;;;;;;;7371728;19;775;-58
2022/11/02 10:04:18;;;;;;;;;;;;;;;;;;7369816;19;800;-60
2022/11/02 10:06:46;;;;;;;;;;;;;;;;;;7370861;19;846;-60
2022/11/02 10:09:14;;;;;;;;;;;;;;;;;;7371103;19;2062;-59
2022/11/02 10:11:43;;;;;;;;;;;;;;;;;;7371589;19;803;-58
2022/11/02 10:14:11;;;;;;;;;;;;;;;;;;7370447;19;806;-62
2022/11/02 10:16:39;;;;;;;;;;;;;;;;;;7370144;19;1849;-60
2022/11/02 10:19:07;;;;;;;;;;;;;;;;;;7372514;19;1410;-60
2022/11/02 10:21:35;;;;;;;;;;;;;;;;;;7372307;19;1722;-57
2022/11/02 10:24:03;;;;;;;;;;;;;;;;;;7370788;19;806;-55
2022/11/02 10:26:31;;;;;;;;;;;;;;;;;;7371221;19;792;-59
2022/11/02 10:28:59;;;;;;;;;;;;;;;;;;7370397;19;1872;-56
2022/11/02 10:31:28;;;;;;;;;;;;;;;;;;7372487;19;971;-60
2022/11/02 10:33:56;;;;;;;;;;;;;;;;;;7371895;19;832;-61
2022/11/02 10:36:24;;;;;;;;;;;;;;;;;;7377084;19;1825;-61
2022/11/02 10:38:52;;;;;;;;;;;;;;;;;;7374837;19;1850;-59
2022/11/02 10:41:20;;;;;;;;;;;;;;;;;;7375393;19;748;-57
2022/11/02 10:43:48;;;;;;;;;;;;;;;;;;7371444;19;863;-60
2022/11/02 10:46:16;;;;;;;;;;;;;;;;;;7375384;19;1779;-60
2022/11/02 10:48:44;;;;;;;;;;;;;;;;;;7373781;19;2035;-60
2022/11/02 10:51:14;;;;;;;;;;;;;;;;;;7371849;19;870;-58
2022/11/02 10:53:42;;;;;;;;;;;;;;;;;;7372070;19;786;-59
2022/11/02 10:56:10;;;;;;;;;;;;;;;;;;7370130;19;1843;-60
2022/11/02 10:58:38;;;;;;;;;;;;;;;;;;7373421;19;1812;-61
2022/11/02 11:01:06;;;;;;;;;;;;;;;;;;7372217;19;890;-61
2022/11/02 11:03:34;;;;;;;;;;;;;;;;;;7371718;19;820;-58
2022/11/02 11:06:02;;;;;;;;;;;;;;;;;;7370180;19;736;-58
2022/11/02 11:08:31;;;;;;;;;;;;;;;;;;7370535;19;1563;-61
2022/11/02 11:10:59;;;;;;;;;;;;;;;;;;7370038;19;806;-58
2022/11/02 11:13:27;;;;;;;;;;;;;;;;;;7372016;19;1290;-58
2022/11/02 11:15:55;;;;;;;;;;;;;;;;;;7366856;19;1841;-53
2022/11/02 11:18:23;;;;;;;;;;;;;;;;;;7371519;19;2098;-58
2022/11/02 11:20:51;;;;;;;;;;;;;;;;;;7369895;19;873;-57
2022/11/02 11:23:19;;;;;;;;;;;;;;;;;;7368456;19;831;-58
2022/11/02 11:25:47;;;;;;;;;;;;;;;;;;7370250;19;803;-60
2022/11/02 11:28:16;;;;;;;;;;;;;;;;;;7372051;19;2024;-59
2022/11/02 11:30:44;;;;;;;;;;;;;;;;;;7370223;19;853;-60
2022/11/02 11:33:12;;;;;;;;;;;;;;;;;;7369443;19;848;-62
2022/11/02 11:35:40;;;;;;;;;;;;;;;;;;7368660;19;1842;-57
2022/11/02 11:38:08;;;;;;;;;;;;;;;;;;7370269;19;1811;-57
2022/11/02 11:40:37;;;;;;;;;;;;;;;;;;7366160;19;1734;-60
2022/11/02 11:43:05;;;;;;;;;;;;;;;;;;7368784;19;811;-61
2022/11/02 11:45:33;;;;;;;;;;;;;;;;;;7371837;19;931;-60
2022/11/02 11:48:01;;;;;;;;;;;;;;;;;;7368277;19;2033;-62
2022/11/02 11:50:29;;;;;;;;;;;;;;;;;;7367278;19;1695;-62
2022/11/02 11:52:57;;;;;;;;;;;;;;;;;;7372113;19;1571;-58
2022/11/02 11:55:26;;;;;;;;;;;;;;;;;;7365577;19;1845;-59
2022/11/02 11:57:54;;;;;;;;;;;;;;;;;;7369291;19;729;-59
2022/11/02 12:00:22;;;;;;;;;;;;;;;;;;7365981;19;1267;-58
2022/11/02 12:02:50;;;;;;;;;;;;;;;;;;7372755;19;2264;-59
2022/11/02 12:05:19;;;;;;;;;;;;;;;;;;7368236;19;788;-58
2022/11/02 12:07:47;;;;;;;;;;;;;;;;;;7367156;19;861;-64
2022/11/02 12:10:16;;;;;;;;;;;;;;;;;;7366519;19;1325;-59
2022/11/02 12:12:44;;;;;;;;;;;;;;;;;;7372666;19;1745;-62
2022/11/02 12:15:12;;;;;;;;;;;;;;;;;;7369421;19;1745;-58
2022/11/02 12:17:40;;;;;;;;;;;;;;;;;;7367882;19;1838;-57
2022/11/02 12:20:08;;;;;;;;;;;;;;;;;;7365950;19;1274;-59
2022/11/02 12:22:36;;;;;;;;;;;;;;;;;;7367646;19;866;-62
2022/11/02 12:25:05;;;;;;;;;;;;;;;;;;7369649;19;1817;-58
2022/11/02 12:27:33;;;;;;;;;;;;;;;;;;7367159;19;863;-57
2022/11/02 12:30:01;;;;;;;;;;;;;;;;;;7365338;19;1307;-60
2022/11/02 12:32:29;;;;;;;;;;;;;;;;;;7366881;19;801;-59
2022/11/02 12:34:58;;;;;;;;;;;;;;;;;;7367411;19;1805;-60
2022/11/02 12:37:26;;;;;;;;;;;;;;;;;;7365297;19;1834;-61
2022/11/02 12:39:54;;;;;;;;;;;;;;;;;;7364661;19;1275;-61
2022/11/02 12:42:22;;;;;;;;;;;;;;;;;;7366679;19;826;-61
2022/11/02 12:44:50;;;;;;;;;;;;;;;;;;7369046;19;2105;-60
2022/11/02 12:47:18;;;;;;;;;;;;;;;;;;7370460;19;1062;-62
2022/11/02 12:49:47;;;;;;;;;;;;;;;;;;7362769;19;1346;-61
2022/11/02 12:52:15;;;;;;;;;;;;;;;;;;7368313;19;1540;-61
2022/11/02 12:54:46;;;;;;;;;;;;;;;;;;7360336;19;1903;-59
2022/11/02 12:57:14;;;;;;;;;;;;;;;;;;7363201;19;1854;-61
2022/11/02 12:59:42;;;;;;;;;;;;;;;;;;7363498;19;1287;-63
2022/11/02 13:02:11;;;;;;;;;;;;;;;;;;7366726;19;920;-61
2022/11/02 13:04:39;;;;;;;;;;;;;;;;;;7367655;19;2074;-62
2022/11/02 13:07:07;;;;;;;;;;;;;;;;;;7370921;19;1793;-60
2022/11/02 13:09:35;;;;;;;;;;;;;;;;;;7374090;19;1836;-57
2022/11/02 13:12:04;;;;;;;;;;;;;;;;;;7374703;19;2021;-61
2022/11/02 13:14:32;;;;;;;;;;;;;;;;;;7373646;19;1840;-60
2022/11/02 13:17:01;;;;;;;;;;;;;;;;;;7372641;19;1841;-60
2022/11/02 13:19:29;;;;;;;;;;;;;;;;;;7370641;19;1271;-60
2022/11/02 13:21:57;;;;;;;;;;;;;;;;;;7372708;19;695;-58
2022/11/02 13:24:25;;;;;;;;;;;;;;;;;;7371953;19;1866;-59
2022/11/02 13:26:53;;;;;;;;;;;;;;;;;;7371204;19;823;-57
2022/11/02 13:29:22;;;;;;;;;;;;;;;;;;7370006;19;1326;-57
2022/11/02 13:31:50;;;;;;;;;;;;;;;;;;7371498;19;806;-60
2022/11/02 13:34:18;;;;;;;;;;;;;;;;;;7372481;19;1568;-62
2022/11/02 13:36:46;;;;;;;;;;;;;;;;;;7370474;19;1843;-62
2022/11/02 13:39:14;;;;;;;;;;;;;;;;;;7371014;19;2074;-62
2022/11/02 13:41:42;;;;;;;;;;;;;;;;;;7371150;19;888;-61
2022/11/02 13:44:10;;;;;;;;;;;;;;;;;;7370017;19;1801;-58
2022/11/02 13:46:39;;;;;;;;;;;;;;;;;;7368934;19;826;-61
2022/11/02 13:49:07;;;;;;;;;;;;;;;;;;7369391;19;1281;-54
2022/11/02 13:51:35;;;;;;;;;;;;;;;;;;7372431;19;1804;-59
2022/11/02 13:54:03;;;;;;;;;;;;;;;;;;7373511;19;718;-59
2022/11/02 13:56:32;;;;;;;;;;;;;;;;;;7372858;19;1869;-57
2022/11/02 13:59:00;;;;;;;;;;;;;;;;;;7368933;19;1307;-61
2022/11/02 14:01:28;;;;;;;;;;;;;;;;;;7371015;19;903;-59
2022/11/02 14:03:56;;;;;;;;;;;;;;;;;;7373730;19;1762;-62
2022/11/02 14:06:25;;;;;;;;;;;;;;;;;;7369949;19;2083;-60
2022/11/02 14:08:53;;;;;;;;;;;;;;;;;;7373282;19;1527;-62
2022/11/02 14:11:21;;;;;;;;;;;;;;;;;;7371036;19;811;-61
2022/11/02 14:13:49;;;;;;;;;;;;;;;;;;7373489;19;1763;-61
2022/11/02 14:16:17;;;;;;;;;;;;;;;;;;7370372;19;1855;-60
2022/11/02 14:18:46;;;;;;;;;;;;;;;;;;7367194;19;1274;-61
2022/11/02 14:21:14;;;;;;;;;;;;;;;;;;7371301;19;916;-59
2022/11/02 14:23:42;;;;;;;;;;;;;;;;;;7377504;19;1763;-52
2022/11/02 14:26:10;;;;;;;;;;;;;;;;;;7372638;19;716;-59
2022/11/02 14:28:38;;;;;;;;;;;;;;;;;;7373562;19;1846;-60
2022/11/02 14:31:06;;;;;;;;;;;;;;;;;;7376391;19;1458;-58
2022/11/02 14:33:35;;;;;;;;;;;;;;;;;;7375843;19;719;-63
2022/11/02 14:36:03;;;;;;;;;;;;;;;;;;7367813;19;783;-61
2022/11/02 14:38:31;;;;;;;;;;;;;;;;;;7365364;19;1873;-57
2022/11/02 14:40:59;;;;;;;;;;;;;;;;;;7369490;19;1817;-58
2022/11/02 14:43:29;;;;;;;;;;;;;;;;;;7374800;19;1823;-62
2022/11/02 14:45:57;;;;;;;;;;;;;;;;;;7370548;19;810;-55
2022/11/02 14:48:25;;;;;;;;;;;;;;;;;;7368435;19;1313;-55
2022/11/02 14:50:53;;;;;;;;;;;;;;;;;;7370085;19;835;-56
2022/11/02 14:53:21;;;;;;;;;;;;;;;;;;7373284;19;1906;-57
2022/11/02 14:55:49;;;;;;;;;;;;;;;;;;7373140;19;1856;-56
2022/11/02 14:58:19;;;;;;;;;;;;;;;;;;7369563;19;1858;-58
2022/11/02 15:00:47;;;;;;;;;;;;;;;;;;7369289;19;823;-57
2022/11/02 15:03:15;;;;;;;;;;;;;;;;;;7369598;19;877;-60
2022/11/02 15:05:43;;;;;;;;;;;;;;;;;;7373915;19;1804;-59
2022/11/02 15:08:11;;;;;;;;;;;;;;;;;;7371169;19;881;-54
2022/11/02 15:10:39;;;;;;;;;;;;;;;;;;7366079;19;1192;-60
2022/11/02 15:13:08;;;;;;;;;;;;;;;;;;7367671;19;816;-59
2022/11/02 15:15:36;;;;;;;;;;;;;;;;;;7368233;19;1658;-57
2022/11/02 15:18:04;;;;;;;;;;;;;;;;;;7366003;19;1814;-59
2022/11/02 15:20:32;;;;;;;;;;;;;;;;;;7365547;19;1411;-52
2022/11/02 15:23:00;;;;;;;;;;;;;;;;;;7369235;19;752;-53
2022/11/02 15:25:29;;;;;;;;;;;;;;;;;;7368476;19;811;-60
2022/11/02 15:27:58;;;;;;;;;;;;;;;;;;7368379;19;1778;-57
2022/11/02 15:30:26;;;;;;;;;;;;;;;;;;7367026;19;1833;-57
2022/11/02 15:32:54;;;;;;;;;;;;;;;;;;7368548;19;824;-58
2022/11/02 15:35:22;;;;;;;;;;;;;;;;;;7368652;19;810;-56
2022/11/02 15:37:50;;;;;;;;;;;;;;;;;;7365967;19;1846;-58
2022/11/02 15:40:18;;;;;;;;;;;;;;;;;;7367811;19;1849;-56
2022/11/02 15:42:46;;;;;;;;;;;;;;;;;;7367982;19;879;-53
2022/11/02 15:45:15;;;;;;;;;;;;;;;;;;7366146;19;840;-56
2022/11/02 15:47:43;;;;;;;;;;;;;;;;;;7369656;19;1780;-53
2022/11/02 15:50:11;;;;;;;;;;;;;;;;;;7365939;19;1337;-58
2022/11/02 15:52:39;;;;;;;;;;;;;;;;;;7367140;19;1133;-60
2022/11/02 15:55:07;;;;;;;;;;;;;;;;;;7369263;19;1732;-61
2022/11/02 15:57:36;;;;;;;;;;;;;;;;;;7368084;19;1837;-63
2022/11/02 16:00:05;;;;;;;;;;;;;;;;;;7365503;19;1282;-64
2022/11/02 16:02:36;;;;;;;;;;;;;;;;;;7370760;19;1624;-60
2022/11/02 16:05:04;;;;;;;;;;;;;;;;;;7367478;19;717;-62
2022/11/02 16:07:33;;;;;;;;;;;;;;;;;;7370445;19;1852;-57
2022/11/02 16:10:01;;;;;;;;;;;;;;;;;;7365398;19;1358;-57
2022/11/02 16:12:29;;;;;;;;;;;;;;;;;;7369911;19;1832;-58
2022/11/02 16:14:57;;;;;;;;;;;;;;;;;;7367317;19;771;-59
2022/11/02 16:17:25;;;;;;;;;;;;;;;;;;7365024;19;1850;-61
2022/11/02 16:19:54;;;;;;;;;;;;;;;;;;7369173;19;1784;-57
2022/11/02 16:22:22;;;;;;;;;;;;;;;;;;7368861;19;1508;-59
2022/11/02 16:24:50;;;;;;;;;;;;;;;;;;7371039;19;1320;-58
2022/11/02 16:27:18;;;;;;;;;;;;;;;;;;7372864;19;1879;-62
2022/11/02 16:29:46;;;;;;;;;;;;;;;;;;7365415;19;1360;-55
2022/11/02 16:32:14;;;;;;;;;;;;;;;;;;7367224;19;866;-61
2022/11/02 16:34:43;;;;;;;;;;;;;;;;;;7366438;19;807;-61
2022/11/02 16:37:12;;;;;;;;;;;;;;;;;;7365502;19;1834;-60
2022/11/02 16:39:42;;;;;;;;;;;;;;;;;;7364052;19;1282;-53
2022/11/02 16:42:11;;;;;;;;;;;;;;;;;;7371734;19;706;-58
2022/11/02 16:44:39;;;;;;;;;;;;;;;;;;7373278;19;794;-56
2022/11/02 16:47:08;;;;;;;;;;;;;;;;;;7371372;19;814;-62
2022/11/02 16:49:36;;;;;;;;;;;;;;;;;;7370867;19;2004;-59
2022/11/02 16:52:04;;;;;;;;;;;;;;;;;;7377040;19;894;-59
2022/11/02 16:54:32;;;;;;;;;;;;;;;;;;7372692;19;745;-57
2022/11/02 16:57:01;;;;;;;;;;;;;;;;;;7373806;19;1889;-59
2022/11/02 16:59:29;;;;;;;;;;;;;;;;;;7373375;19;1838;-59
2022/11/02 17:01:57;;;;;;;;;;;;;;;;;;7370187;19;787;-60
2022/11/02 17:04:25;;;;;;;;;;;;;;;;;;7371196;19;802;-64
2022/11/02 17:06:53;;;;;;;;;;;;;;;;;;7369916;19;849;-62
2022/11/02 17:09:22;;;;;;;;;;;;;;;;;;7369375;19;1329;-62
2022/11/02 17:11:50;;;;;;;;;;;;;;;;;;7372647;19;823;-62
2022/11/02 17:14:18;;;;;;;;;;;;;;;;;;7372235;19;845;-56
2022/11/02 17:16:46;;;;;;;;;;;;;;;;;;7372539;19;979;-56
2022/11/02 17:19:14;;;;;;;;;;;;;;;;;;7372944;19;1964;-59
2022/11/02 17:21:42;;;;;;;;;;;;;;;;;;7371713;19;802;-59
2022/11/02 17:24:11;;;;;;;;;;;;;;;;;;7370710;19;822;-60
2022/11/02 17:26:39;;;;;;;;;;;;;;;;;;7374802;19;1722;-59
2022/11/02 17:29:07;;;;;;;;;;;;;;;;;;7373026;19;2016;-60
2022/11/02 17:31:35;;;;;;;;;;;;;;;;;;7373947;19;890;-56